sensor_id;sensor_type;location;lat;lon;timestamp;P1;durP1;ratioP1;P2;durP2;ratioP2
21412;SDS011;10867;45.084;5.732;2022-08-21T00:01:54;5.85;;;1.30;;
21412;SDS011;10867;45.084;5.732;2022-08-21T00:04:21;3.20;;;1.15;;
21412;SDS011;10867;45.084;5.732;2022-08-21T00:06:50;4.90;;;1.40;;
21412;SDS011;10867;45.084;5.732;2022-08-21T00:09:16;3.55;;;1.23;;
21412;SDS011;10867;45.084;5.732;2022-08-21T00:11:43;4.60;;;1.20;;
21412;SDS011;10867;45.084;5.732;2022-08-21T00:14:09;4.32;;;1.13;;
21412;SDS011;10867;45.084;5.732;2022-08-21T00:16:36;3.35;;;1.20;;
21412;SDS011;10867;45.084;5.732;2022-08-21T00:19:03;4.63;;;1.30;;
21412;SDS011;10867;45.084;5.732;2022-08-21T00:21:31;4.80;;;1.30;;
21412;SDS011;10867;45.084;5.732;2022-08-21T00:23:57;3.20;;;1.30;;
21412;SDS011;10867;45.084;5.732;2022-08-21T00:26:24;2.95;;;1.25;;
21412;SDS011;10867;45.084;5.732;2022-08-21T00:28:50;3.80;;;1.27;;
21412;SDS011;10867;45.084;5.732;2022-08-21T00:31:16;4.38;;;1.30;;
21412;SDS011;10867;45.084;5.732;2022-08-21T00:33:43;4.25;;;1.48;;
21412;SDS011;10867;45.084;5.732;2022-08-21T00:36:09;5.50;;;1.50;;
21412;SDS011;10867;45.084;5.732;2022-08-21T00:38:35;2.75;;;1.52;;
21412;SDS011;10867;45.084;5.732;2022-08-21T00:41:02;3.83;;;1.20;;
21412;SDS011;10867;45.084;5.732;2022-08-21T00:43:30;4.00;;;1.30;;
21412;SDS011;10867;45.084;5.732;2022-08-21T00:45:57;5.30;;;1.50;;
21412;SDS011;10867;45.084;5.732;2022-08-21T00:48:24;4.82;;;1.52;;
21412;SDS011;10867;45.084;5.732;2022-08-21T00:50:58;4.80;;;1.67;;
21412;SDS011;10867;45.084;5.732;2022-08-21T00:53:25;6.30;;;1.60;;
21412;SDS011;10867;45.084;5.732;2022-08-21T00:55:52;5.50;;;1.80;;
21412;SDS011;10867;45.084;5.732;2022-08-21T00:58:19;4.43;;;1.87;;
21412;SDS011;10867;45.084;5.732;2022-08-21T01:00:46;5.65;;;1.70;;
21412;SDS011;10867;45.084;5.732;2022-08-21T01:03:14;4.38;;;1.52;;
21412;SDS011;10867;45.084;5.732;2022-08-21T01:05:41;5.28;;;1.50;;
21412;SDS011;10867;45.084;5.732;2022-08-21T01:08:08;2.92;;;1.60;;
21412;SDS011;10867;45.084;5.732;2022-08-21T01:10:35;3.22;;;1.40;;
21412;SDS011;10867;45.084;5.732;2022-08-21T01:13:02;5.97;;;1.77;;
21412;SDS011;10867;45.084;5.732;2022-08-21T01:15:32;4.03;;;1.60;;
21412;SDS011;10867;45.084;5.732;2022-08-21T01:17:59;4.63;;;1.67;;
21412;SDS011;10867;45.084;5.732;2022-08-21T01:20:25;3.88;;;1.50;;
21412;SDS011;10867;45.084;5.732;2022-08-21T01:22:52;5.03;;;1.30;;
21412;SDS011;10867;45.084;5.732;2022-08-21T01:25:18;5.18;;;1.45;;
21412;SDS011;10867;45.084;5.732;2022-08-21T01:27:47;3.17;;;1.40;;
21412;SDS011;10867;45.084;5.732;2022-08-21T01:30:14;5.47;;;1.35;;
21412;SDS011;10867;45.084;5.732;2022-08-21T01:32:41;4.35;;;1.60;;
21412;SDS011;10867;45.084;5.732;2022-08-21T01:35:08;2.80;;;1.27;;
21412;SDS011;10867;45.084;5.732;2022-08-21T01:37:34;2.80;;;1.30;;
21412;SDS011;10867;45.084;5.732;2022-08-21T01:40:01;3.35;;;1.30;;
21412;SDS011;10867;45.084;5.732;2022-08-21T01:42:27;4.75;;;1.30;;
21412;SDS011;10867;45.084;5.732;2022-08-21T01:44:53;5.40;;;1.37;;
21412;SDS011;10867;45.084;5.732;2022-08-21T01:47:19;4.63;;;1.35;;
21412;SDS011;10867;45.084;5.732;2022-08-21T01:49:45;3.38;;;1.40;;
21412;SDS011;10867;45.084;5.732;2022-08-21T01:52:11;4.50;;;1.30;;
21412;SDS011;10867;45.084;5.732;2022-08-21T01:54:38;2.10;;;1.20;;
21412;SDS011;10867;45.084;5.732;2022-08-21T01:57:04;2.78;;;1.23;;
21412;SDS011;10867;45.084;5.732;2022-08-21T01:59:30;2.97;;;1.30;;
21412;SDS011;10867;45.084;5.732;2022-08-21T02:01:57;3.95;;;1.23;;
21412;SDS011;10867;45.084;5.732;2022-08-21T02:04:23;3.28;;;1.45;;
21412;SDS011;10867;45.084;5.732;2022-08-21T02:06:50;5.00;;;1.70;;
21412;SDS011;10867;45.084;5.732;2022-08-21T02:09:16;2.20;;;1.37;;
21412;SDS011;10867;45.084;5.732;2022-08-21T02:11:42;5.00;;;1.50;;
21412;SDS011;10867;45.084;5.732;2022-08-21T02:14:12;4.47;;;1.70;;
21412;SDS011;10867;45.084;5.732;2022-08-21T02:16:39;7.22;;;1.60;;
21412;SDS011;10867;45.084;5.732;2022-08-21T02:19:06;4.45;;;1.50;;
21412;SDS011;10867;45.084;5.732;2022-08-21T02:21:32;3.15;;;1.52;;
21412;SDS011;10867;45.084;5.732;2022-08-21T02:23:58;4.25;;;1.80;;
21412;SDS011;10867;45.084;5.732;2022-08-21T02:26:25;4.40;;;1.77;;
21412;SDS011;10867;45.084;5.732;2022-08-21T02:28:51;5.40;;;1.70;;
21412;SDS011;10867;45.084;5.732;2022-08-21T02:31:17;4.13;;;1.63;;
21412;SDS011;10867;45.084;5.732;2022-08-21T02:33:43;3.40;;;1.73;;
21412;SDS011;10867;45.084;5.732;2022-08-21T02:36:10;5.55;;;2.00;;
21412;SDS011;10867;45.084;5.732;2022-08-21T02:38:37;6.53;;;1.95;;
21412;SDS011;10867;45.084;5.732;2022-08-21T02:41:08;6.13;;;1.90;;
21412;SDS011;10867;45.084;5.732;2022-08-21T02:43:34;2.38;;;1.70;;
21412;SDS011;10867;45.084;5.732;2022-08-21T02:46:00;3.90;;;1.90;;
21412;SDS011;10867;45.084;5.732;2022-08-21T02:48:28;3.13;;;1.80;;
21412;SDS011;10867;45.084;5.732;2022-08-21T02:50:59;4.40;;;1.83;;
21412;SDS011;10867;45.084;5.732;2022-08-21T02:53:26;4.28;;;1.90;;
21412;SDS011;10867;45.084;5.732;2022-08-21T02:55:53;4.75;;;1.83;;
21412;SDS011;10867;45.084;5.732;2022-08-21T02:58:26;6.72;;;1.75;;
21412;SDS011;10867;45.084;5.732;2022-08-21T03:00:52;4.43;;;1.70;;
21412;SDS011;10867;45.084;5.732;2022-08-21T03:03:18;4.00;;;1.95;;
21412;SDS011;10867;45.084;5.732;2022-08-21T03:05:46;2.63;;;1.80;;
21412;SDS011;10867;45.084;5.732;2022-08-21T03:08:13;4.95;;;1.70;;
21412;SDS011;10867;45.084;5.732;2022-08-21T03:10:40;2.05;;;1.60;;
21412;SDS011;10867;45.084;5.732;2022-08-21T03:13:07;6.78;;;1.77;;
21412;SDS011;10867;45.084;5.732;2022-08-21T03:15:34;3.73;;;1.70;;
21412;SDS011;10867;45.084;5.732;2022-08-21T03:18:01;4.05;;;1.70;;
21412;SDS011;10867;45.084;5.732;2022-08-21T03:20:28;3.22;;;1.65;;
21412;SDS011;10867;45.084;5.732;2022-08-21T03:22:56;5.80;;;1.90;;
21412;SDS011;10867;45.084;5.732;2022-08-21T03:25:23;5.82;;;1.80;;
21412;SDS011;10867;45.084;5.732;2022-08-21T03:27:49;4.20;;;1.90;;
21412;SDS011;10867;45.084;5.732;2022-08-21T03:30:15;4.65;;;2.00;;
21412;SDS011;10867;45.084;5.732;2022-08-21T03:32:42;4.05;;;2.15;;
21412;SDS011;10867;45.084;5.732;2022-08-21T03:35:08;4.28;;;1.92;;
21412;SDS011;10867;45.084;5.732;2022-08-21T03:37:35;4.45;;;2.00;;
21412;SDS011;10867;45.084;5.732;2022-08-21T03:40:03;5.43;;;1.90;;
21412;SDS011;10867;45.084;5.732;2022-08-21T03:42:30;2.20;;;1.80;;
21412;SDS011;10867;45.084;5.732;2022-08-21T03:44:56;6.43;;;1.88;;
21412;SDS011;10867;45.084;5.732;2022-08-21T03:47:22;6.90;;;1.85;;
21412;SDS011;10867;45.084;5.732;2022-08-21T03:49:49;3.67;;;1.50;;
21412;SDS011;10867;45.084;5.732;2022-08-21T03:52:15;7.85;;;1.75;;
21412;SDS011;10867;45.084;5.732;2022-08-21T03:54:42;3.80;;;1.40;;
21412;SDS011;10867;45.084;5.732;2022-08-21T03:57:08;4.40;;;1.70;;
21412;SDS011;10867;45.084;5.732;2022-08-21T03:59:35;4.57;;;1.60;;
21412;SDS011;10867;45.084;5.732;2022-08-21T04:02:03;4.13;;;1.50;;
21412;SDS011;10867;45.084;5.732;2022-08-21T04:04:30;6.50;;;1.60;;
21412;SDS011;10867;45.084;5.732;2022-08-21T04:06:56;2.53;;;1.50;;
21412;SDS011;10867;45.084;5.732;2022-08-21T04:09:23;3.93;;;1.50;;
21412;SDS011;10867;45.084;5.732;2022-08-21T04:11:49;4.13;;;1.52;;
21412;SDS011;10867;45.084;5.732;2022-08-21T04:14:16;2.30;;;1.35;;
21412;SDS011;10867;45.084;5.732;2022-08-21T04:16:42;2.60;;;1.50;;
21412;SDS011;10867;45.084;5.732;2022-08-21T04:19:09;2.65;;;1.40;;
21412;SDS011;10867;45.084;5.732;2022-08-21T04:21:35;3.90;;;1.50;;
21412;SDS011;10867;45.084;5.732;2022-08-21T04:24:03;3.37;;;1.77;;
21412;SDS011;10867;45.084;5.732;2022-08-21T04:26:29;3.85;;;2.05;;
21412;SDS011;10867;45.084;5.732;2022-08-21T04:28:56;6.20;;;2.13;;
21412;SDS011;10867;45.084;5.732;2022-08-21T04:31:23;5.88;;;2.17;;
21412;SDS011;10867;45.084;5.732;2022-08-21T04:33:49;4.10;;;2.40;;
21412;SDS011;10867;45.084;5.732;2022-08-21T04:36:16;4.78;;;3.15;;
21412;SDS011;10867;45.084;5.732;2022-08-21T04:38:42;4.57;;;3.37;;
21412;SDS011;10867;45.084;5.732;2022-08-21T04:41:08;6.05;;;3.08;;
21412;SDS011;10867;45.084;5.732;2022-08-21T04:43:35;8.80;;;3.00;;
21412;SDS011;10867;45.084;5.732;2022-08-21T04:46:01;4.85;;;2.88;;
21412;SDS011;10867;45.084;5.732;2022-08-21T04:48:27;4.60;;;2.50;;
21412;SDS011;10867;45.084;5.732;2022-08-21T04:51:06;7.00;;;2.78;;
21412;SDS011;10867;45.084;5.732;2022-08-21T04:53:34;5.53;;;2.70;;
21412;SDS011;10867;45.084;5.732;2022-08-21T04:56:04;6.20;;;3.10;;
21412;SDS011;10867;45.084;5.732;2022-08-21T04:58:33;8.25;;;3.25;;
21412;SDS011;10867;45.084;5.732;2022-08-21T05:00:59;5.38;;;3.00;;
21412;SDS011;10867;45.084;5.732;2022-08-21T05:03:26;6.78;;;3.20;;
21412;SDS011;10867;45.084;5.732;2022-08-21T05:05:53;8.38;;;3.25;;
21412;SDS011;10867;45.084;5.732;2022-08-21T05:08:20;4.88;;;3.20;;
21412;SDS011;10867;45.084;5.732;2022-08-21T05:10:48;5.20;;;2.97;;
21412;SDS011;10867;45.084;5.732;2022-08-21T05:13:14;4.07;;;2.35;;
21412;SDS011;10867;45.084;5.732;2022-08-21T05:15:40;2.60;;;2.40;;
21412;SDS011;10867;45.084;5.732;2022-08-21T05:18:07;4.82;;;2.35;;
21412;SDS011;10867;45.084;5.732;2022-08-21T05:20:34;6.03;;;2.27;;
21412;SDS011;10867;45.084;5.732;2022-08-21T05:23:01;6.03;;;2.37;;
21412;SDS011;10867;45.084;5.732;2022-08-21T05:25:27;7.40;;;2.70;;
21412;SDS011;10867;45.084;5.732;2022-08-21T05:27:53;3.90;;;2.20;;
21412;SDS011;10867;45.084;5.732;2022-08-21T05:30:19;3.00;;;2.40;;
21412;SDS011;10867;45.084;5.732;2022-08-21T05:32:46;6.05;;;2.42;;
21412;SDS011;10867;45.084;5.732;2022-08-21T05:35:12;6.28;;;2.50;;
21412;SDS011;10867;45.084;5.732;2022-08-21T05:37:39;6.93;;;2.40;;
21412;SDS011;10867;45.084;5.732;2022-08-21T05:40:05;5.83;;;2.50;;
21412;SDS011;10867;45.084;5.732;2022-08-21T05:42:33;3.25;;;2.40;;
21412;SDS011;10867;45.084;5.732;2022-08-21T05:44:59;5.65;;;4.22;;
21412;SDS011;10867;45.084;5.732;2022-08-21T05:47:25;7.17;;;4.90;;
21412;SDS011;10867;45.084;5.732;2022-08-21T05:49:51;8.55;;;4.93;;
21412;SDS011;10867;45.084;5.732;2022-08-21T05:52:18;6.68;;;4.88;;
21412;SDS011;10867;45.084;5.732;2022-08-21T05:54:44;7.78;;;4.70;;
21412;SDS011;10867;45.084;5.732;2022-08-21T05:57:11;5.95;;;4.60;;
21412;SDS011;10867;45.084;5.732;2022-08-21T05:59:37;5.82;;;3.05;;
21412;SDS011;10867;45.084;5.732;2022-08-21T06:02:03;5.60;;;2.10;;
21412;SDS011;10867;45.084;5.732;2022-08-21T06:04:29;4.30;;;2.10;;
21412;SDS011;10867;45.084;5.732;2022-08-21T06:06:55;3.37;;;2.03;;
21412;SDS011;10867;45.084;5.732;2022-08-21T06:09:21;4.00;;;1.88;;
21412;SDS011;10867;45.084;5.732;2022-08-21T06:11:48;5.13;;;2.10;;
21412;SDS011;10867;45.084;5.732;2022-08-21T06:14:14;7.03;;;2.30;;
21412;SDS011;10867;45.084;5.732;2022-08-21T06:16:41;6.32;;;2.53;;
21412;SDS011;10867;45.084;5.732;2022-08-21T06:19:07;5.38;;;2.45;;
21412;SDS011;10867;45.084;5.732;2022-08-21T06:21:33;4.40;;;2.13;;
21412;SDS011;10867;45.084;5.732;2022-08-21T06:23:59;4.50;;;2.27;;
21412;SDS011;10867;45.084;5.732;2022-08-21T06:26:26;4.47;;;2.22;;
21412;SDS011;10867;45.084;5.732;2022-08-21T06:28:53;5.43;;;2.15;;
21412;SDS011;10867;45.084;5.732;2022-08-21T06:31:21;3.83;;;1.92;;
21412;SDS011;10867;45.084;5.732;2022-08-21T06:33:47;4.33;;;2.07;;
21412;SDS011;10867;45.084;5.732;2022-08-21T06:36:14;5.70;;;2.30;;
21412;SDS011;10867;45.084;5.732;2022-08-21T06:38:40;5.07;;;2.00;;
21412;SDS011;10867;45.084;5.732;2022-08-21T06:41:06;4.45;;;1.95;;
21412;SDS011;10867;45.084;5.732;2022-08-21T06:43:33;4.95;;;2.00;;
21412;SDS011;10867;45.084;5.732;2022-08-21T06:45:59;4.47;;;2.15;;
21412;SDS011;10867;45.084;5.732;2022-08-21T06:48:25;4.53;;;1.90;;
21412;SDS011;10867;45.084;5.732;2022-08-21T06:50:51;4.70;;;2.00;;
21412;SDS011;10867;45.084;5.732;2022-08-21T06:53:18;3.13;;;1.73;;
21412;SDS011;10867;45.084;5.732;2022-08-21T06:55:45;4.60;;;1.87;;
21412;SDS011;10867;45.084;5.732;2022-08-21T06:58:11;4.10;;;1.80;;
21412;SDS011;10867;45.084;5.732;2022-08-21T07:00:38;3.55;;;1.77;;
21412;SDS011;10867;45.084;5.732;2022-08-21T07:03:05;4.35;;;2.13;;
21412;SDS011;10867;45.084;5.732;2022-08-21T07:05:31;3.83;;;2.30;;
21412;SDS011;10867;45.084;5.732;2022-08-21T07:07:58;3.73;;;2.47;;
21412;SDS011;10867;45.084;5.732;2022-08-21T07:10:25;4.80;;;2.80;;
21412;SDS011;10867;45.084;5.732;2022-08-21T07:12:51;5.50;;;2.38;;
21412;SDS011;10867;45.084;5.732;2022-08-21T07:15:19;6.13;;;2.40;;
21412;SDS011;10867;45.084;5.732;2022-08-21T07:17:45;5.60;;;2.58;;
21412;SDS011;10867;45.084;5.732;2022-08-21T07:20:11;6.18;;;2.40;;
21412;SDS011;10867;45.084;5.732;2022-08-21T07:22:38;3.77;;;2.37;;
21412;SDS011;10867;45.084;5.732;2022-08-21T07:25:05;3.72;;;2.45;;
21412;SDS011;10867;45.084;5.732;2022-08-21T07:27:31;4.10;;;2.40;;
21412;SDS011;10867;45.084;5.732;2022-08-21T07:29:58;3.22;;;2.00;;
21412;SDS011;10867;45.084;5.732;2022-08-21T07:32:24;3.97;;;1.88;;
21412;SDS011;10867;45.084;5.732;2022-08-21T07:34:51;4.40;;;1.90;;
21412;SDS011;10867;45.084;5.732;2022-08-21T07:37:17;3.50;;;1.60;;
21412;SDS011;10867;45.084;5.732;2022-08-21T07:39:43;2.78;;;1.80;;
21412;SDS011;10867;45.084;5.732;2022-08-21T07:42:09;2.92;;;1.83;;
21412;SDS011;10867;45.084;5.732;2022-08-21T07:44:35;2.83;;;1.70;;
21412;SDS011;10867;45.084;5.732;2022-08-21T07:47:01;2.72;;;1.50;;
21412;SDS011;10867;45.084;5.732;2022-08-21T07:49:28;2.70;;;1.67;;
21412;SDS011;10867;45.084;5.732;2022-08-21T07:51:54;3.30;;;2.13;;
21412;SDS011;10867;45.084;5.732;2022-08-21T07:54:20;2.80;;;1.80;;
21412;SDS011;10867;45.084;5.732;2022-08-21T07:56:46;2.58;;;1.83;;
21412;SDS011;10867;45.084;5.732;2022-08-21T07:59:12;2.45;;;1.50;;
21412;SDS011;10867;45.084;5.732;2022-08-21T08:01:39;2.67;;;1.73;;
21412;SDS011;10867;45.084;5.732;2022-08-21T08:04:05;3.00;;;1.70;;
21412;SDS011;10867;45.084;5.732;2022-08-21T08:06:31;4.35;;;1.90;;
21412;SDS011;10867;45.084;5.732;2022-08-21T08:08:58;2.80;;;1.60;;
21412;SDS011;10867;45.084;5.732;2022-08-21T08:11:24;2.67;;;1.52;;
21412;SDS011;10867;45.084;5.732;2022-08-21T08:13:51;3.10;;;1.38;;
21412;SDS011;10867;45.084;5.732;2022-08-21T08:16:17;3.38;;;1.70;;
21412;SDS011;10867;45.084;5.732;2022-08-21T08:18:44;2.53;;;1.40;;
21412;SDS011;10867;45.084;5.732;2022-08-21T08:21:11;3.00;;;1.63;;
21412;SDS011;10867;45.084;5.732;2022-08-21T08:23:37;4.63;;;1.67;;
21412;SDS011;10867;45.084;5.732;2022-08-21T08:26:04;3.33;;;1.70;;
21412;SDS011;10867;45.084;5.732;2022-08-21T08:28:31;4.28;;;1.70;;
21412;SDS011;10867;45.084;5.732;2022-08-21T08:30:58;2.60;;;1.40;;
21412;SDS011;10867;45.084;5.732;2022-08-21T08:33:24;2.63;;;1.50;;
21412;SDS011;10867;45.084;5.732;2022-08-21T08:35:51;2.83;;;1.60;;
21412;SDS011;10867;45.084;5.732;2022-08-21T08:38:18;2.90;;;1.40;;
21412;SDS011;10867;45.084;5.732;2022-08-21T08:43:20;3.55;;;1.40;;
21412;SDS011;10867;45.084;5.732;2022-08-21T08:45:50;4.83;;;1.53;;
21412;SDS011;10867;45.084;5.732;2022-08-21T08:48:26;3.60;;;1.23;;
21412;SDS011;10867;45.084;5.732;2022-08-21T08:50:57;2.38;;;1.50;;
21412;SDS011;10867;45.084;5.732;2022-08-21T08:53:33;2.50;;;1.30;;
21412;SDS011;10867;45.084;5.732;2022-08-21T08:56:00;1.93;;;1.33;;
21412;SDS011;10867;45.084;5.732;2022-08-21T08:58:28;2.22;;;1.40;;
21412;SDS011;10867;45.084;5.732;2022-08-21T09:00:55;3.37;;;1.30;;
21412;SDS011;10867;45.084;5.732;2022-08-21T09:03:22;3.25;;;1.40;;
21412;SDS011;10867;45.084;5.732;2022-08-21T09:05:56;1.65;;;1.30;;
21412;SDS011;10867;45.084;5.732;2022-08-21T09:08:26;4.25;;;1.30;;
21412;SDS011;10867;45.084;5.732;2022-08-21T09:16:01;1.75;;;1.40;;
21412;SDS011;10867;45.084;5.732;2022-08-21T09:21:18;2.47;;;1.40;;
21412;SDS011;10867;45.084;5.732;2022-08-21T09:23:53;4.32;;;1.95;;
21412;SDS011;10867;45.084;5.732;2022-08-21T09:26:24;2.40;;;1.42;;
21412;SDS011;10867;45.084;5.732;2022-08-21T09:28:55;3.10;;;1.80;;
21412;SDS011;10867;45.084;5.732;2022-08-21T09:31:36;4.00;;;1.60;;
21412;SDS011;10867;45.084;5.732;2022-08-21T09:34:04;3.85;;;1.80;;
21412;SDS011;10867;45.084;5.732;2022-08-21T09:39:00;2.53;;;1.50;;
21412;SDS011;10867;45.084;5.732;2022-08-21T09:41:28;2.70;;;1.43;;
21412;SDS011;10867;45.084;5.732;2022-08-21T09:43:54;2.60;;;1.67;;
21412;SDS011;10867;45.084;5.732;2022-08-21T09:46:21;3.28;;;1.52;;
21412;SDS011;10867;45.084;5.732;2022-08-21T09:48:49;1.53;;;1.40;;
21412;SDS011;10867;45.084;5.732;2022-08-21T09:51:20;2.40;;;1.67;;
21412;SDS011;10867;45.084;5.732;2022-08-21T09:54:13;1.80;;;1.52;;
21412;SDS011;10867;45.084;5.732;2022-08-21T09:57:27;2.35;;;1.30;;
21412;SDS011;10867;45.084;5.732;2022-08-21T09:59:54;1.45;;;1.20;;
21412;SDS011;10867;45.084;5.732;2022-08-21T10:02:39;1.35;;;1.10;;
21412;SDS011;10867;45.084;5.732;2022-08-21T10:05:16;1.70;;;1.00;;
21412;SDS011;10867;45.084;5.732;2022-08-21T10:07:42;1.67;;;1.20;;
21412;SDS011;10867;45.084;5.732;2022-08-21T10:10:23;1.92;;;1.17;;
21412;SDS011;10867;45.084;5.732;2022-08-21T10:12:53;2.00;;;0.90;;
21412;SDS011;10867;45.084;5.732;2022-08-21T10:20:54;2.08;;;1.10;;
21412;SDS011;10867;45.084;5.732;2022-08-21T10:26:00;1.67;;;1.15;;
21412;SDS011;10867;45.084;5.732;2022-08-21T10:31:00;1.73;;;1.00;;
21412;SDS011;10867;45.084;5.732;2022-08-21T10:36:14;2.60;;;1.40;;
21412;SDS011;10867;45.084;5.732;2022-08-21T10:41:46;1.00;;;0.90;;
21412;SDS011;10867;45.084;5.732;2022-08-21T10:47:02;3.72;;;2.25;;
21412;SDS011;10867;45.084;5.732;2022-08-21T10:49:43;2.50;;;1.10;;
21412;SDS011;10867;45.084;5.732;2022-08-21T10:54:52;1.40;;;1.10;;
21412;SDS011;10867;45.084;5.732;2022-08-21T10:59:52;2.38;;;1.30;;
21412;SDS011;10867;45.084;5.732;2022-08-21T11:02:23;3.17;;;1.10;;
21412;SDS011;10867;45.084;5.732;2022-08-21T11:04:56;1.52;;;1.40;;
21412;SDS011;10867;45.084;5.732;2022-08-21T11:07:31;2.13;;;1.40;;
21412;SDS011;10867;45.084;5.732;2022-08-21T11:10:00;1.13;;;1.00;;
21412;SDS011;10867;45.084;5.732;2022-08-21T11:12:29;1.80;;;0.90;;
21412;SDS011;10867;45.084;5.732;2022-08-21T11:17:30;2.22;;;1.00;;
21412;SDS011;10867;45.084;5.732;2022-08-21T11:20:03;2.08;;;1.08;;
21412;SDS011;10867;45.084;5.732;2022-08-21T11:23:00;2.53;;;1.00;;
21412;SDS011;10867;45.084;5.732;2022-08-21T11:25:35;2.20;;;1.08;;
21412;SDS011;10867;45.084;5.732;2022-08-21T11:30:33;2.55;;;1.10;;
21412;SDS011;10867;45.084;5.732;2022-08-21T11:33:27;1.55;;;0.90;;
21412;SDS011;10867;45.084;5.732;2022-08-21T11:36:05;1.40;;;1.00;;
21412;SDS011;10867;45.084;5.732;2022-08-21T11:41:25;2.10;;;1.10;;
21412;SDS011;10867;45.084;5.732;2022-08-21T11:43:58;1.40;;;1.00;;
21412;SDS011;10867;45.084;5.732;2022-08-21T11:46:34;1.52;;;0.90;;
21412;SDS011;10867;45.084;5.732;2022-08-21T11:49:05;1.20;;;1.08;;
21412;SDS011;10867;45.084;5.732;2022-08-21T11:51:40;1.90;;;0.93;;
21412;SDS011;10867;45.084;5.732;2022-08-21T11:57:22;1.90;;;1.00;;
21412;SDS011;10867;45.084;5.732;2022-08-21T12:02:34;3.50;;;0.80;;
21412;SDS011;10867;45.084;5.732;2022-08-21T12:05:05;3.55;;;1.00;;
21412;SDS011;10867;45.084;5.732;2022-08-21T12:20:00;2.25;;;0.80;;
21412;SDS011;10867;45.084;5.732;2022-08-21T12:23:25;1.45;;;0.80;;
21412;SDS011;10867;45.084;5.732;2022-08-21T12:26:36;2.30;;;0.90;;
21412;SDS011;10867;45.084;5.732;2022-08-21T12:35:15;2.13;;;0.90;;
21412;SDS011;10867;45.084;5.732;2022-08-21T12:44:09;2.28;;;1.02;;
21412;SDS011;10867;45.084;5.732;2022-08-21T12:47:15;1.92;;;0.77;;
21412;SDS011;10867;45.084;5.732;2022-08-21T13:14:55;1.73;;;0.90;;
21412;SDS011;10867;45.084;5.732;2022-08-21T13:17:25;1.63;;;0.95;;
21412;SDS011;10867;45.084;5.732;2022-08-21T13:22:45;1.13;;;0.80;;
21412;SDS011;10867;45.084;5.732;2022-08-21T13:25:15;1.55;;;0.80;;
21412;SDS011;10867;45.084;5.732;2022-08-21T13:28:03;1.50;;;0.80;;
21412;SDS011;10867;45.084;5.732;2022-08-21T13:36:37;1.27;;;0.80;;
21412;SDS011;10867;45.084;5.732;2022-08-21T13:39:19;2.00;;;0.80;;
21412;SDS011;10867;45.084;5.732;2022-08-21T13:41:55;2.15;;;0.90;;
21412;SDS011;10867;45.084;5.732;2022-08-21T13:44:31;1.13;;;0.80;;
21412;SDS011;10867;45.084;5.732;2022-08-21T13:47:01;1.03;;;0.70;;
21412;SDS011;10867;45.084;5.732;2022-08-21T13:52:28;1.42;;;0.77;;
21412;SDS011;10867;45.084;5.732;2022-08-21T13:54:55;2.10;;;0.80;;
21412;SDS011;10867;45.084;5.732;2022-08-21T13:57:30;2.72;;;0.80;;
21412;SDS011;10867;45.084;5.732;2022-08-21T14:03:09;1.67;;;0.70;;
21412;SDS011;10867;45.084;5.732;2022-08-21T14:05:43;1.95;;;0.82;;
21412;SDS011;10867;45.084;5.732;2022-08-21T14:08:46;1.23;;;0.90;;
21412;SDS011;10867;45.084;5.732;2022-08-21T14:11:03;1.88;;;0.90;;
21412;SDS011;10867;45.084;5.732;2022-08-21T14:13:33;4.25;;;0.90;;
21412;SDS011;10867;45.084;5.732;2022-08-21T14:18:52;1.83;;;0.80;;
21412;SDS011;10867;45.084;5.732;2022-08-21T14:27:24;1.15;;;0.65;;
21412;SDS011;10867;45.084;5.732;2022-08-21T14:30:27;1.38;;;0.80;;
21412;SDS011;10867;45.084;5.732;2022-08-21T14:33:07;1.35;;;0.80;;
21412;SDS011;10867;45.084;5.732;2022-08-21T14:43:09;3.40;;;0.90;;
21412;SDS011;10867;45.084;5.732;2022-08-21T14:55:30;1.73;;;0.80;;
21412;SDS011;10867;45.084;5.732;2022-08-21T15:01:42;3.33;;;1.10;;
21412;SDS011;10867;45.084;5.732;2022-08-21T15:04:12;1.80;;;0.83;;
21412;SDS011;10867;45.084;5.732;2022-08-21T15:09:51;3.77;;;1.10;;
21412;SDS011;10867;45.084;5.732;2022-08-21T15:12:34;2.03;;;1.10;;
21412;SDS011;10867;45.084;5.732;2022-08-21T15:15:22;2.40;;;1.10;;
21412;SDS011;10867;45.084;5.732;2022-08-21T15:17:48;2.83;;;1.10;;
21412;SDS011;10867;45.084;5.732;2022-08-21T15:23:38;3.15;;;0.93;;
21412;SDS011;10867;45.084;5.732;2022-08-21T15:26:39;1.40;;;1.00;;
21412;SDS011;10867;45.084;5.732;2022-08-21T15:29:17;4.15;;;1.20;;
21412;SDS011;10867;45.084;5.732;2022-08-21T15:31:51;3.85;;;1.35;;
21412;SDS011;10867;45.084;5.732;2022-08-21T15:34:28;2.35;;;1.20;;
21412;SDS011;10867;45.084;5.732;2022-08-21T15:36:55;2.45;;;1.10;;
21412;SDS011;10867;45.084;5.732;2022-08-21T15:39:39;4.82;;;1.20;;
21412;SDS011;10867;45.084;5.732;2022-08-21T15:42:21;2.50;;;1.13;;
21412;SDS011;10867;45.084;5.732;2022-08-21T15:45:22;3.05;;;1.40;;
21412;SDS011;10867;45.084;5.732;2022-08-21T15:47:48;5.00;;;1.30;;
21412;SDS011;10867;45.084;5.732;2022-08-21T15:50:15;5.28;;;1.35;;
21412;SDS011;10867;45.084;5.732;2022-08-21T15:52:41;3.47;;;1.20;;
21412;SDS011;10867;45.084;5.732;2022-08-21T15:55:08;2.22;;;1.10;;
21412;SDS011;10867;45.084;5.732;2022-08-21T15:57:35;2.22;;;1.10;;
21412;SDS011;10867;45.084;5.732;2022-08-21T16:00:12;2.77;;;1.40;;
21412;SDS011;10867;45.084;5.732;2022-08-21T16:02:40;4.53;;;1.40;;
21412;SDS011;10867;45.084;5.732;2022-08-21T16:05:08;3.83;;;1.40;;
21412;SDS011;10867;45.084;5.732;2022-08-21T16:07:36;4.18;;;1.35;;
21412;SDS011;10867;45.084;5.732;2022-08-21T16:10:03;3.90;;;1.27;;
21412;SDS011;10867;45.084;5.732;2022-08-21T16:12:30;2.43;;;1.27;;
21412;SDS011;10867;45.084;5.732;2022-08-21T16:15:01;2.40;;;1.33;;
21412;SDS011;10867;45.084;5.732;2022-08-21T16:17:37;2.97;;;1.30;;
21412;SDS011;10867;45.084;5.732;2022-08-21T16:23:20;3.15;;;1.35;;
21412;SDS011;10867;45.084;5.732;2022-08-21T16:25:46;2.33;;;1.27;;
21412;SDS011;10867;45.084;5.732;2022-08-21T16:28:13;2.08;;;1.10;;
21412;SDS011;10867;45.084;5.732;2022-08-21T16:30:40;2.57;;;1.40;;
21412;SDS011;10867;45.084;5.732;2022-08-21T16:35:57;2.20;;;1.30;;
21412;SDS011;10867;45.084;5.732;2022-08-21T16:38:24;2.45;;;1.23;;
21412;SDS011;10867;45.084;5.732;2022-08-21T16:40:51;4.63;;;1.50;;
21412;SDS011;10867;45.084;5.732;2022-08-21T16:43:17;2.53;;;1.40;;
21412;SDS011;10867;45.084;5.732;2022-08-21T16:45:47;4.82;;;1.40;;
21412;SDS011;10867;45.084;5.732;2022-08-21T16:48:20;2.92;;;1.50;;
21412;SDS011;10867;45.084;5.732;2022-08-21T16:50:47;4.38;;;1.40;;
21412;SDS011;10867;45.084;5.732;2022-08-21T16:53:13;2.50;;;1.33;;
21412;SDS011;10867;45.084;5.732;2022-08-21T16:55:39;3.63;;;1.30;;
21412;SDS011;10867;45.084;5.732;2022-08-21T16:58:10;3.37;;;1.40;;
21412;SDS011;10867;45.084;5.732;2022-08-21T17:00:40;2.92;;;1.45;;
21412;SDS011;10867;45.084;5.732;2022-08-21T17:03:08;3.55;;;1.40;;
21412;SDS011;10867;45.084;5.732;2022-08-21T17:05:38;5.38;;;1.83;;
21412;SDS011;10867;45.084;5.732;2022-08-21T17:08:04;3.47;;;1.40;;
21412;SDS011;10867;45.084;5.732;2022-08-21T17:10:31;4.07;;;1.50;;
21412;SDS011;10867;45.084;5.732;2022-08-21T17:19:28;3.10;;;1.30;;
21412;SDS011;10867;45.084;5.732;2022-08-21T17:21:58;2.70;;;1.50;;
21412;SDS011;10867;45.084;5.732;2022-08-21T17:24:24;3.00;;;1.50;;
21412;SDS011;10867;45.084;5.732;2022-08-21T17:26:50;3.13;;;1.40;;
21412;SDS011;10867;45.084;5.732;2022-08-21T17:29:24;3.65;;;1.45;;
21412;SDS011;10867;45.084;5.732;2022-08-21T17:32:11;3.08;;;1.60;;
21412;SDS011;10867;45.084;5.732;2022-08-21T17:34:44;3.13;;;1.40;;
21412;SDS011;10867;45.084;5.732;2022-08-21T17:37:11;2.28;;;1.30;;
21412;SDS011;10867;45.084;5.732;2022-08-21T17:39:44;2.90;;;1.50;;
21412;SDS011;10867;45.084;5.732;2022-08-21T17:45:03;3.88;;;1.45;;
21412;SDS011;10867;45.084;5.732;2022-08-21T17:47:29;3.22;;;1.42;;
21412;SDS011;10867;45.084;5.732;2022-08-21T17:49:55;5.20;;;1.60;;